Time;durP1;ratioP1;P1;durP2;ratioP2;P2;SDS_P1;SDS_P2;PMS_P1;PMS_P2;Temp;Humidity;BMP_temperature;BMP_pressure;BME280_temperature;BME280_humidity;BME280_pressure;Samples;Min_cycle;Max_cycle;Signal;HPM_P1;HPM_P2
2022/01/19 00:01:34;;;;;;;45.63;18.77;;;5.40;99.90;;;;;;4938374;29;20182;-86
2022/01/19 00:04:00;;;;;;;41.23;18.63;;;5.50;99.90;;;;;;4938951;29;20667;-85
2022/01/19 00:06:26;;;;;;;37.33;18.93;;;5.50;99.90;;;;;;4938415;29;20266;-85
2022/01/19 00:08:52;;;;;;;37.00;19.07;;;5.50;99.90;;;;;;4938625;29;20181;-86
2022/01/19 00:11:18;;;;;;;38.23;19.03;;;5.60;99.90;;;;;;4938600;29;20279;-86
2022/01/19 00:13:44;;;;;;;40.90;18.80;;;5.70;99.90;;;;;;4938932;29;20190;-85
2022/01/19 00:16:10;;;;;;;38.37;18.30;;;5.60;99.90;;;;;;4938297;29;20292;-86
2022/01/19 00:18:36;;;;;;;35.73;17.53;;;5.40;99.90;;;;;;4938334;29;20634;-86
2022/01/19 00:21:02;;;;;;;41.20;18.00;;;5.40;99.90;;;;;;4938339;29;20582;-86
2022/01/19 00:23:28;;;;;;;39.87;19.03;;;5.30;99.90;;;;;;4938547;29;20183;-86
2022/01/19 00:25:55;;;;;;;35.53;17.47;;;5.20;99.90;;;;;;4938281;29;20228;-86
2022/01/19 00:28:21;;;;;;;33.40;17.87;;;5.10;99.90;;;;;;4938601;29;20179;-85
2022/01/19 00:30:47;;;;;;;34.33;17.00;;;5.10;99.90;;;;;;4938165;29;20179;-86
2022/01/19 00:33:13;;;;;;;37.67;18.43;;;5.20;99.90;;;;;;4938282;29;20190;-86
2022/01/19 00:35:40;;;;;;;45.63;19.30;;;5.20;99.90;;;;;;4938257;29;20238;-86
2022/01/19 00:38:08;;;;;;;38.30;18.00;;;5.20;99.90;;;;;;4938061;29;20187;-86
2022/01/19 00:40:35;;;;;;;47.70;19.37;;;5.10;99.90;;;;;;4938227;29;20211;-86
2022/01/19 00:43:01;;;;;;;37.77;18.53;;;5.00;99.90;;;;;;4938070;29;20188;-85
2022/01/19 00:45:27;;;;;;;35.90;18.73;;;5.10;99.90;;;;;;4944689;29;20188;-86
2022/01/19 00:47:53;;;;;;;37.33;18.37;;;5.20;99.90;;;;;;4943542;29;20671;-86
2022/01/19 00:50:23;;;;;;;39.20;19.90;;;5.10;99.90;;;;;;4938095;29;20273;-86
2022/01/19 00:52:51;;;;;;;52.20;23.63;;;5.10;99.90;;;;;;4937880;29;20184;-86
2022/01/19 00:55:17;;;;;;;56.73;21.73;;;5.00;99.90;;;;;;4937833;29;20177;-86
2022/01/19 00:57:43;;;;;;;39.30;19.87;;;4.90;99.90;;;;;;4938154;29;20270;-86
2022/01/19 01:00:12;;;;;;;41.73;19.77;;;4.70;99.90;;;;;;4938062;29;20306;-86
2022/01/19 01:02:38;;;;;;;45.77;19.73;;;4.70;99.90;;;;;;4937948;29;20181;-85
2022/01/19 01:05:04;;;;;;;34.43;17.90;;;4.60;99.90;;;;;;4937764;29;20186;-86
2022/01/19 01:07:33;;;;;;;34.77;18.13;;;4.60;99.90;;;;;;4937916;29;20595;-86
2022/01/19 01:09:59;;;;;;;36.17;18.07;;;4.50;99.90;;;;;;4938070;29;20637;-86
2022/01/19 01:12:41;;;;;;;37.50;19.47;;;4.50;99.90;;;;;;4939545;29;20227;-85
2022/01/19 01:20:28;;;;;;;32.60;17.37;;;4.50;99.90;;;;;;4958352;29;20208;-86
2022/01/19 01:22:54;;;;;;;38.90;17.90;;;4.50;99.90;;;;;;4941460;29;20616;-86
2022/01/19 01:25:19;;;;;;;40.50;21.37;;;4.40;99.90;;;;;;4941462;29;20181;-85
2022/01/19 01:27:45;;;;;;;41.20;22.30;;;4.60;99.90;;;;;;4941727;29;20182;-85
2022/01/19 01:30:11;;;;;;;40.93;19.73;;;4.70;99.90;;;;;;4941601;29;20663;-85
2022/01/19 01:32:37;;;;;;;38.60;18.40;;;4.70;99.90;;;;;;4941276;29;20541;-85
2022/01/19 01:35:03;;;;;;;35.80;19.77;;;4.60;99.90;;;;;;4941134;29;20179;-85
2022/01/19 01:37:28;;;;;;;36.50;19.37;;;4.50;99.90;;;;;;4941137;29;20624;-85
2022/01/19 01:39:54;;;;;;;36.47;17.80;;;4.40;99.90;;;;;;4941470;29;20225;-86
2022/01/19 01:42:21;;;;;;;34.57;18.80;;;4.30;99.90;;;;;;4941121;29;20180;-85
2022/01/19 01:44:50;;;;;;;35.13;18.47;;;4.30;99.90;;;;;;4941051;29;20195;-86
2022/01/19 01:47:17;;;;;;;34.43;18.27;;;4.30;99.90;;;;;;4940934;29;20179;-85
2022/01/19 01:55:08;;;;;;;34.93;19.03;;;4.50;99.90;;;;;;4958622;29;20194;-86
2022/01/19 01:57:34;;;;;;;40.50;20.93;;;4.80;99.90;;;;;;4940878;29;20214;-85
2022/01/19 01:59:59;;;;;;;45.90;21.87;;;5.10;99.90;;;;;;4940804;29;20706;-85
2022/01/19 02:02:25;;;;;;;50.23;21.47;;;5.20;99.90;;;;;;4940339;29;20200;-86
2022/01/19 02:04:51;;;;;;;54.90;24.03;;;5.30;99.90;;;;;;4940741;29;20206;-86
2022/01/19 02:09:45;;;;;;;53.77;24.27;;;5.40;99.90;;;;;;4958074;29;20243;-86
2022/01/19 02:23:21;;;;;;;50.13;22.27;;;5.40;99.90;;;;;;4937173;29;20541;-86
2022/01/19 02:25:58;;;;;;;50.10;22.90;;;5.20;99.90;;;;;;4921199;29;20183;-86
2022/01/19 02:41:35;;;;;;;45.50;20.23;;;5.30;99.90;;;;;;4938286;29;20180;-86
2022/01/19 02:44:01;;;;;;;43.30;21.30;;;5.60;99.90;;;;;;4921321;29;20202;-86
2022/01/19 02:49:19;;;;;;;59.13;35.33;;;5.30;99.90;;;;;;4938162;29;20320;-88
2022/01/19 02:51:48;;;;;;;61.60;34.97;;;4.90;99.90;;;;;;4920948;29;20192;-86
2022/01/19 02:54:24;;;;;;;60.93;31.17;;;4.90;99.90;;;;;;4920943;29;20542;-85
2022/01/19 02:56:54;;;;;;;58.50;32.57;;;5.10;99.90;;;;;;4936626;29;20236;-88
2022/01/19 02:59:31;;;;;;;69.67;31.33;;;5.00;99.90;;;;;;4920703;29;20212;-86
2022/01/19 03:10:10;;;;;;;56.70;28.10;;;5.50;99.90;;;;;;4937637;29;20187;-87
2022/01/19 03:12:35;;;;;;;48.90;23.30;;;5.70;99.90;;;;;;4920521;29;20629;-88
2022/01/19 03:15:01;;;;;;;40.20;17.53;;;6.10;99.90;;;;;;4919938;29;20295;-87
2022/01/19 03:17:26;;;;;;;37.67;16.80;;;6.10;99.90;;;;;;4920585;29;20188;-87
2022/01/19 03:19:53;;;;;;;34.00;15.43;;;6.30;99.90;;;;;;4927057;29;20231;-87
2022/01/19 03:22:23;;;;;;;31.60;15.27;;;6.10;99.90;;;;;;4929666;29;20207;-88
2022/01/19 03:24:51;;;;;;;32.93;15.73;;;6.20;99.90;;;;;;4920333;29;20184;-85
2022/01/19 03:27:18;;;;;;;34.00;14.93;;;6.30;99.90;;;;;;4920206;29;20184;-88
2022/01/19 03:29:44;;;;;;;34.17;15.93;;;6.40;99.90;;;;;;4919808;29;20179;-87
2022/01/19 03:32:11;;;;;;;33.03;15.77;;;6.40;99.90;;;;;;4920330;29;20190;-85
2022/01/19 03:34:37;;;;;;;31.83;15.00;;;6.30;99.90;;;;;;4919543;29;20191;-88
2022/01/19 03:37:03;;;;;;;29.80;14.73;;;6.30;99.90;;;;;;4920391;29;20231;-87
2022/01/19 03:39:30;;;;;;;27.43;14.30;;;6.40;99.90;;;;;;4920278;29;20215;-87
2022/01/19 03:41:55;;;;;;;32.13;15.40;;;6.40;99.90;;;;;;4920115;29;20188;-87
2022/01/19 03:44:21;;;;;;;31.90;14.60;;;6.30;99.90;;;;;;4919844;29;20198;-87
2022/01/19 03:46:56;;;;;;;27.13;13.73;;;6.20;99.90;;;;;;4919797;29;20219;-87
2022/01/19 03:49:27;;;;;;;29.37;14.80;;;6.10;99.90;;;;;;4919833;29;20186;-87
2022/01/19 03:51:58;;;;;;;27.83;14.27;;;6.00;99.90;;;;;;4919772;29;20225;-87
2022/01/19 03:54:35;;;;;;;31.50;14.57;;;6.00;99.90;;;;;;4919790;29;20231;-86
2022/01/19 03:57:01;;;;;;;32.20;16.13;;;5.80;99.90;;;;;;4919583;29;20175;-88
2022/01/19 03:59:28;;;;;;;29.03;14.40;;;5.70;99.90;;;;;;4919828;29;20238;-87
2022/01/19 04:01:54;;;;;;;28.47;14.23;;;5.70;99.90;;;;;;4919720;29;20192;-86
2022/01/19 04:04:44;;;;;;;30.40;15.70;;;5.60;99.90;;;;;;4919998;29;20619;-86
2022/01/19 04:07:09;;;;;;;26.37;13.67;;;5.60;99.90;;;;;;4936188;29;20659;-87
2022/01/19 04:09:38;;;;;;;26.57;13.63;;;5.60;99.90;;;;;;4919673;29;20175;-87
2022/01/19 04:12:06;;;;;;;26.93;14.23;;;5.60;99.90;;;;;;4919505;29;20175;-87
2022/01/19 04:14:32;;;;;;;24.27;13.50;;;5.60;99.90;;;;;;4919008;29;20183;-87
2022/01/19 04:17:06;;;;;;;24.80;12.33;;;5.80;99.90;;;;;;4919498;29;20196;-87
2022/01/19 04:19:41;;;;;;;27.13;13.10;;;5.90;99.90;;;;;;4919704;29;20214;-87
2022/01/19 04:22:10;;;;;;;22.17;11.90;;;5.80;99.90;;;;;;4919626;29;20183;-87
2022/01/19 04:24:37;;;;;;;22.70;11.87;;;5.90;99.90;;;;;;4919245;29;20812;-87
2022/01/19 04:29:43;;;;;;;25.63;12.27;;;6.10;99.90;;;;;;4936173;29;20191;-87
2022/01/19 04:32:19;;;;;;;20.53;11.83;;;6.00;99.90;;;;;;4919258;29;20179;-87
2022/01/19 04:34:47;;;;;;;26.30;12.80;;;5.90;99.90;;;;;;4919177;29;20267;-87
2022/01/19 04:45:58;;;;;;;19.80;11.73;;;6.00;99.90;;;;;;4936326;29;20224;-87
2022/01/19 05:01:53;;;;;;;21.57;12.07;;;5.90;99.90;;;;;;4935831;29;20195;-86
2022/01/19 05:06:53;;;;;;;19.63;12.20;;;5.70;99.90;;;;;;4935598;29;20180;-87
2022/01/19 05:13:25;;;;;;;16.80;11.80;;;5.70;99.90;;;;;;4919126;29;20294;-87
2022/01/19 05:14:58;;;;;;;23.80;12.33;;;5.90;99.90;;;;;;4936015;29;20207;-87
2022/01/19 05:17:23;;;;;;;20.87;12.17;;;5.80;99.90;;;;;;4918882;29;20188;-87
2022/01/19 05:19:49;;;;;;;20.47;12.43;;;5.80;99.90;;;;;;4918706;29;20701;-87
2022/01/19 05:22:15;;;;;;;19.93;12.50;;;5.90;99.90;;;;;;4918730;29;20218;-87
2022/01/19 05:24:40;;;;;;;17.13;11.80;;;6.10;99.90;;;;;;4918673;29;20179;-87
2022/01/19 05:27:06;;;;;;;15.43;11.00;;;6.20;99.90;;;;;;4918283;29;20690;-87
2022/01/19 05:29:31;;;;;;;18.97;12.33;;;6.20;99.90;;;;;;4918957;29;20247;-86
2022/01/19 05:31:57;;;;;;;18.97;12.93;;;6.00;99.90;;;;;;4918773;29;20704;-87
2022/01/19 05:34:22;;;;;;;17.20;11.33;;;6.10;99.90;;;;;;4919037;29;20218;-87
2022/01/19 05:36:48;;;;;;;16.17;10.80;;;6.00;99.90;;;;;;4918995;29;20536;-87
2022/01/19 05:39:14;;;;;;;15.23;10.97;;;6.00;99.90;;;;;;4918514;29;20204;-87
2022/01/19 05:41:39;;;;;;;21.17;11.80;;;6.00;99.90;;;;;;4918806;29;20187;-87
2022/01/19 05:44:05;;;;;;;18.77;11.77;;;6.10;99.90;;;;;;4918699;29;20181;-87
2022/01/19 05:46:32;;;;;;;19.07;12.20;;;6.20;99.90;;;;;;4918847;29;20183;-86
2022/01/19 05:48:58;;;;;;;21.37;11.67;;;6.10;99.90;;;;;;4918492;29;20183;-86
2022/01/19 05:51:24;;;;;;;18.10;12.57;;;6.00;99.90;;;;;;4918564;29;20184;-87
2022/01/19 05:53:50;;;;;;;20.50;12.13;;;6.00;99.90;;;;;;4917989;29;20214;-87
2022/01/19 05:56:16;;;;;;;19.03;11.83;;;6.10;99.90;;;;;;4918619;29;20188;-86
2022/01/19 05:58:41;;;;;;;18.63;12.27;;;6.20;99.90;;;;;;4922481;29;20328;-87
2022/01/19 06:01:07;;;;;;;18.50;12.53;;;6.20;99.90;;;;;;4927562;29;20223;-87
2022/01/19 06:03:32;;;;;;;16.30;11.97;;;6.20;99.90;;;;;;4935481;29;20201;-83
2022/01/19 06:05:58;;;;;;;18.00;11.77;;;6.30;99.90;;;;;;4940319;29;20195;-83
2022/01/19 06:10:54;;;;;;;18.30;11.73;;;6.50;99.90;;;;;;4956823;29;20250;-84
2022/01/19 06:13:21;;;;;;;18.37;11.87;;;6.50;99.90;;;;;;4939328;29;20588;-83
2022/01/19 06:15:47;;;;;;;19.47;12.13;;;6.50;99.90;;;;;;4938679;29;20230;-84
2022/01/19 06:18:14;;;;;;;16.93;11.50;;;6.50;99.90;;;;;;4939590;29;20229;-84
2022/01/19 06:20:41;;;;;;;20.53;12.53;;;6.60;99.90;;;;;;4957043;29;20583;-84
2022/01/19 06:23:06;;;;;;;17.17;11.83;;;6.60;99.90;;;;;;4933422;28;20204;-82
2022/01/19 06:25:32;;;;;;;18.63;12.27;;;6.50;99.90;;;;;;4935103;29;20530;-82
2022/01/19 06:27:58;;;;;;;18.80;12.33;;;6.50;99.90;;;;;;4938715;29;20191;-82
2022/01/19 06:30:24;;;;;;;17.60;11.30;;;6.40;99.90;;;;;;4939276;29;20180;-83
2022/01/19 06:32:50;;;;;;;17.00;11.90;;;6.60;99.90;;;;;;4939606;29;20629;-81
2022/01/19 06:35:15;;;;;;;18.70;11.93;;;6.70;99.90;;;;;;4938935;29;20614;-81
2022/01/19 06:37:41;;;;;;;18.13;11.93;;;6.70;99.90;;;;;;4933049;29;20595;-82
2022/01/19 06:40:09;;;;;;;17.07;10.77;;;6.70;99.90;;;;;;4938050;29;20215;-82
2022/01/19 06:42:35;;;;;;;19.30;11.77;;;6.60;99.90;;;;;;4924846;29;20247;-81
2022/01/19 06:45:02;;;;;;;17.93;11.93;;;6.60;99.90;;;;;;4938956;29;20207;-82
2022/01/19 06:47:28;;;;;;;15.93;11.87;;;6.70;99.90;;;;;;4938723;29;20202;-83
2022/01/19 07:47:55;;;;;;;20.73;12.93;;;6.50;99.90;;;;;;5812437;23;20234;-91
2022/01/19 07:50:20;;;;;;;20.83;13.17;;;6.70;99.90;;;;;;4938281;29;20191;-88
2022/01/19 07:52:46;;;;;;;20.67;13.00;;;6.70;99.90;;;;;;4931254;29;20637;-93
2022/01/19 07:55:12;;;;;;;22.37;13.30;;;6.80;99.90;;;;;;4938366;29;20230;-90
2022/01/19 07:57:40;;;;;;;19.03;12.50;;;6.70;99.90;;;;;;4938536;29;20204;-89
2022/01/19 08:00:07;;;;;;;20.07;13.27;;;6.60;99.90;;;;;;4938528;29;20746;-89
2022/01/19 08:02:33;;;;;;;20.77;13.17;;;6.70;99.90;;;;;;4938636;29;20189;-89
2022/01/19 08:05:00;;;;;;;17.33;12.40;;;6.80;99.90;;;;;;4941686;29;20358;-96
2022/01/19 08:07:26;;;;;;;22.93;13.87;;;6.80;99.90;;;;;;4969933;29;20182;-93
2022/01/19 08:09:52;;;;;;;20.60;13.20;;;6.80;99.90;;;;;;4954292;28;20187;-93
2022/01/19 08:12:18;;;;;;;22.37;14.27;;;6.80;99.90;;;;;;4952853;29;20175;-93
2022/01/19 08:14:44;;;;;;;22.60;13.43;;;6.60;99.90;;;;;;4955305;29;20183;-96
2022/01/19 08:17:12;;;;;;;18.93;13.13;;;6.70;99.90;;;;;;4953396;29;20182;-95
2022/01/19 08:19:37;;;;;;;21.10;14.17;;;6.80;99.90;;;;;;4950369;29;20216;-96
2022/01/19 08:22:04;;;;;;;25.20;12.90;;;6.80;99.90;;;;;;4950568;29;20201;-93
2022/01/19 08:24:30;;;;;;;21.13;12.83;;;6.80;99.90;;;;;;4936337;29;20175;-94
2022/01/19 08:26:56;;;;;;;20.47;13.07;;;6.70;99.90;;;;;;4950170;29;20239;-94
2022/01/19 08:29:22;;;;;;;22.30;13.97;;;6.70;99.90;;;;;;4948549;29;20175;-95
2022/01/19 08:31:48;;;;;;;20.43;13.03;;;6.70;99.90;;;;;;4946625;29;20187;-96
2022/01/19 08:34:13;;;;;;;23.73;13.43;;;6.80;99.90;;;;;;4946629;29;20185;-96
2022/01/19 08:36:39;;;;;;;21.27;13.60;;;6.80;99.90;;;;;;4946850;29;20193;-94
2022/01/19 08:39:07;;;;;;;21.50;13.47;;;6.90;99.90;;;;;;4947270;29;20239;-93
2022/01/19 08:41:32;;;;;;;21.03;14.17;;;6.80;99.90;;;;;;4950641;29;20191;-94
2022/01/19 08:43:58;;;;;;;24.03;14.00;;;6.90;99.90;;;;;;4955635;29;20163;-94
2022/01/19 08:46:24;;;;;;;25.03;13.73;;;6.80;99.90;;;;;;4950750;29;20176;-94
2022/01/19 08:48:50;;;;;;;25.93;14.27;;;6.80;99.90;;;;;;4950353;29;20551;-96
2022/01/19 08:51:15;;;;;;;20.07;13.67;;;6.80;99.90;;;;;;4951031;29;20199;-96
2022/01/19 08:53:41;;;;;;;21.73;13.63;;;6.80;99.90;;;;;;4955352;29;20211;-93
2022/01/19 08:56:08;;;;;;;22.80;13.93;;;6.90;99.90;;;;;;4956277;29;20179;-93
2022/01/19 08:58:34;;;;;;;23.80;13.60;;;6.90;99.90;;;;;;4951895;29;20648;-94
2022/01/19 09:01:00;;;;;;;25.33;13.30;;;7.00;99.90;;;;;;4936532;29;20219;-94
2022/01/19 09:03:33;;;;;;;20.67;13.10;;;7.00;99.90;;;;;;4950574;29;20198;-94
2022/01/19 09:05:59;;;;;;;22.33;13.43;;;6.90;99.90;;;;;;4953106;29;20176;-94
2022/01/19 09:08:30;;;;;;;21.63;13.63;;;6.90;99.90;;;;;;4954766;29;20234;-95
2022/01/19 09:10:58;;;;;;;23.03;13.93;;;6.90;99.90;;;;;;4956209;29;20213;-92
2022/01/19 09:13:24;;;;;;;18.80;12.63;;;7.00;99.90;;;;;;4953649;29;20180;-95
2022/01/19 09:15:53;;;;;;;15.50;11.43;;;7.20;99.90;;;;;;4954219;29;20181;-96
2022/01/19 09:18:19;;;;;;;22.67;12.27;;;7.20;99.90;;;;;;4953356;29;20196;-96
2022/01/19 09:20:48;;;;;;;18.20;12.13;;;7.10;99.90;;;;;;4953921;29;20225;-95
2022/01/19 09:23:13;;;;;;;20.47;11.67;;;7.10;99.90;;;;;;4959925;28;20171;-94
2022/01/19 09:25:40;;;;;;;20.83;13.40;;;7.00;99.90;;;;;;4960528;29;20202;-96
2022/01/19 09:28:15;;;;;;;18.83;12.73;;;7.00;99.90;;;;;;4957847;29;20243;-92
2022/01/19 09:30:41;;;;;;;22.07;13.80;;;7.00;99.90;;;;;;4957510;29;20186;-96
2022/01/19 09:33:17;;;;;;;21.10;13.83;;;7.00;99.90;;;;;;4943032;29;20184;-95
2022/01/19 09:36:05;;;;;;;21.20;13.57;;;7.00;99.90;;;;;;4962697;29;20242;-90
2022/01/19 09:38:36;;;;;;;25.10;14.03;;;7.00;99.90;;;;;;4963901;29;20177;-91
2022/01/19 09:41:03;;;;;;;23.43;13.63;;;6.90;99.90;;;;;;4947175;29;20279;-92
2022/01/19 09:43:29;;;;;;;24.10;13.97;;;6.90;99.90;;;;;;4930140;29;20176;-91
2022/01/19 09:45:57;;;;;;;22.53;14.83;;;6.90;99.90;;;;;;4961200;29;20274;-94
2022/01/19 09:48:25;;;;;;;25.33;15.20;;;6.90;99.90;;;;;;4959997;29;20182;-93
2022/01/19 09:50:51;;;;;;;25.53;14.63;;;6.80;99.90;;;;;;4960532;29;20175;-95
2022/01/19 09:53:20;;;;;;;25.60;15.57;;;6.70;99.90;;;;;;4960021;29;20250;-94
2022/01/19 09:55:50;;;;;;;29.17;16.10;;;6.70;99.90;;;;;;4960962;29;20163;-95
2022/01/19 09:58:22;;;;;;;25.67;15.37;;;6.60;99.90;;;;;;4931948;29;20251;-93
2022/01/19 10:00:52;;;;;;;29.53;16.47;;;6.50;99.90;;;;;;4980262;29;20259;-93
2022/01/19 10:03:43;;;;;;;25.77;16.37;;;6.50;99.90;;;;;;4948621;29;20183;-94
2022/01/19 10:06:17;;;;;;;23.03;15.47;;;6.50;99.90;;;;;;4962186;29;20198;-96
2022/01/19 10:08:44;;;;;;;31.07;17.17;;;6.50;99.90;;;;;;4961380;29;20255;-96
2022/01/19 10:17:02;;;;;;;23.10;16.03;;;6.50;99.90;;;;;;4979250;28;20260;-95
2022/01/19 10:19:33;;;;;;;25.13;16.23;;;6.50;99.90;;;;;;4978147;28;20230;-95
2022/01/19 10:22:03;;;;;;;27.67;16.37;;;6.40;99.90;;;;;;4961021;29;20175;-96
2022/01/19 10:24:42;;;;;;;27.87;16.43;;;6.30;99.90;;;;;;4975843;29;20171;-93
2022/01/19 10:27:26;;;;;;;27.17;16.03;;;6.40;99.90;;;;;;4960047;29;20174;-95
2022/01/19 10:30:07;;;;;;;28.20;15.80;;;6.30;99.90;;;;;;4960567;29;20171;-96
2022/01/19 10:32:55;;;;;;;29.83;16.77;;;6.20;99.90;;;;;;4978053;29;20648;-93
2022/01/19 10:35:38;;;;;;;26.07;16.37;;;6.20;99.90;;;;;;4978211;29;20215;-95
2022/01/19 10:38:25;;;;;;;24.60;15.00;;;6.30;99.90;;;;;;4929556;29;20191;-96
2022/01/19 10:41:12;;;;;;;30.90;16.20;;;6.20;99.90;;;;;;4978761;28;20220;-96
2022/01/19 10:44:03;;;;;;;26.60;16.63;;;6.30;99.90;;;;;;4962298;28;20179;-92
2022/01/19 10:46:34;;;;;;;30.80;16.87;;;6.20;99.90;;;;;;4961123;29;20182;-92
2022/01/19 10:49:10;;;;;;;27.00;16.37;;;6.20;99.90;;;;;;4929022;29;20202;-94
2022/01/19 10:51:58;;;;;;;22.13;14.80;;;6.20;99.90;;;;;;4945550;29;20199;-94
2022/01/19 10:54:27;;;;;;;33.77;16.20;;;6.40;99.90;;;;;;4961225;29;20254;-95
2022/01/19 10:56:58;;;;;;;30.37;16.87;;;6.50;99.90;;;;;;4961987;29;20194;-94
2022/01/19 10:59:32;;;;;;;28.73;17.00;;;6.30;99.90;;;;;;4932632;29;20195;-91
2022/01/19 11:02:09;;;;;;;26.53;16.60;;;6.40;99.90;;;;;;4980399;28;20171;-91
2022/01/19 11:05:00;;;;;;;27.27;16.97;;;6.50;99.90;;;;;;4980110;28;20175;-91
2022/01/19 11:07:32;;;;;;;24.83;15.70;;;6.50;99.90;;;;;;4964131;29;20227;-92
2022/01/19 11:10:22;;;;;;;29.50;16.87;;;6.60;99.90;;;;;;4980501;28;20186;-89
2022/01/19 11:12:55;;;;;;;26.27;17.10;;;6.50;99.90;;;;;;4967821;29;20203;-91
2022/01/19 11:16:02;;;;;;;26.40;16.67;;;6.60;99.90;;;;;;4979754;28;20184;-91
2022/01/19 11:18:39;;;;;;;29.37;16.90;;;6.50;99.90;;;;;;4963943;29;20205;-89
2022/01/19 11:21:11;;;;;;;29.87;18.00;;;6.50;99.90;;;;;;4964335;29;20214;-90
2022/01/19 11:24:46;;;;;;;27.93;17.00;;;6.60;99.90;;;;;;4978590;29;20180;-92
2022/01/19 11:27:47;;;;;;;31.13;17.37;;;6.60;99.90;;;;;;4945498;29;20211;-95
2022/01/19 11:30:30;;;;;;;30.10;17.97;;;6.50;99.90;;;;;;4962993;29;20191;-95
2022/01/19 11:33:24;;;;;;;28.50;17.83;;;6.60;99.90;;;;;;4962851;28;20179;-95
2022/01/19 11:36:24;;;;;;;27.43;17.30;;;6.40;99.90;;;;;;4972031;28;20175;-96
2022/01/19 11:39:55;;;;;;;28.57;16.17;;;6.40;99.90;;;;;;4979117;29;20189;-93
2022/01/19 11:42:42;;;;;;;27.30;16.53;;;6.50;99.90;;;;;;4963072;28;20182;-90
2022/01/19 11:45:40;;;;;;;32.10;17.77;;;6.60;99.90;;;;;;4964145;29;20167;-89
2022/01/19 11:49:01;;;;;;;28.37;16.83;;;6.70;99.90;;;;;;4964554;28;20266;-90
2022/01/19 11:52:07;;;;;;;29.67;17.47;;;6.70;99.90;;;;;;4963313;28;20174;-94
2022/01/19 11:55:12;;;;;;;29.10;16.87;;;6.70;99.90;;;;;;4963366;29;20242;-93
2022/01/19 11:58:33;;;;;;;26.87;16.97;;;6.60;99.90;;;;;;4960977;29;20231;-92
2022/01/19 12:01:26;;;;;;;37.00;17.70;;;6.80;99.90;;;;;;4980276;28;20295;-93
2022/01/19 12:04:45;;;;;;;29.27;17.00;;;6.80;99.90;;;;;;4947347;29;20194;-92
2022/01/19 12:07:43;;;;;;;29.27;17.07;;;6.80;99.90;;;;;;4979513;28;20187;-91
2022/01/19 12:10:39;;;;;;;33.33;17.03;;;6.60;99.90;;;;;;4962260;29;20239;-92
2022/01/19 12:16:43;;;;;;;34.77;18.10;;;6.50;99.90;;;;;;4979399;28;20186;-96
2022/01/19 12:19:33;;;;;;;31.13;17.83;;;6.70;99.90;;;;;;4976402;28;20205;-91
2022/01/19 12:22:20;;;;;;;30.47;18.77;;;6.90;99.90;;;;;;4961898;29;20175;-91
2022/01/19 12:25:01;;;;;;;36.43;18.20;;;6.90;99.90;;;;;;4961072;29;20254;-96
2022/01/19 12:27:26;;;;;;;36.63;18.97;;;6.90;99.90;;;;;;4960861;29;20198;-93
2022/01/19 12:30:14;;;;;;;34.03;19.30;;;7.00;99.90;;;;;;4976904;29;20180;-95
2022/01/19 12:32:47;;;;;;;31.13;17.97;;;7.00;99.90;;;;;;4961495;29;20275;-91
2022/01/19 12:35:36;;;;;;;30.47;17.93;;;7.20;99.90;;;;;;4945922;29;20215;-94
2022/01/19 12:38:33;;;;;;;36.90;19.67;;;7.20;99.90;;;;;;4961395;29;20190;-95
2022/01/19 12:41:07;;;;;;;34.77;19.60;;;7.20;99.90;;;;;;4959933;28;20207;-95
2022/01/19 12:43:52;;;;;;;34.83;19.67;;;7.20;99.90;;;;;;4978583;28;20183;-90
2022/01/19 12:47:01;;;;;;;34.30;19.10;;;7.30;99.90;;;;;;4978284;28;20163;-92
2022/01/19 12:50:02;;;;;;;35.57;18.57;;;7.20;99.90;;;;;;4962215;29;20274;-92
2022/01/19 12:52:58;;;;;;;33.73;19.20;;;7.10;99.90;;;;;;4979153;29;20265;-95
2022/01/19 12:56:00;;;;;;;33.47;19.50;;;7.10;99.90;;;;;;4978501;28;20198;-90
2022/01/19 12:59:07;;;;;;;35.67;20.17;;;7.10;99.90;;;;;;4978902;28;20221;-91
2022/01/19 13:02:03;;;;;;;32.90;18.50;;;7.00;99.90;;;;;;4979289;28;20189;-90
2022/01/19 13:04:49;;;;;;;34.40;19.13;;;7.00;99.90;;;;;;4979202;28;20180;-91
2022/01/19 13:07:30;;;;;;;36.70;20.37;;;7.10;99.90;;;;;;4978880;28;20164;-94
2022/01/19 13:10:48;;;;;;;31.13;17.83;;;7.10;99.90;;;;;;4982493;28;20198;-94
2022/01/19 13:14:08;;;;;;;33.67;19.03;;;7.10;99.90;;;;;;4966771;29;20167;-91
2022/01/19 13:17:20;;;;;;;37.33;19.60;;;7.10;99.90;;;;;;4983224;28;20168;-89
2022/01/19 13:20:28;;;;;;;36.60;19.17;;;7.20;99.90;;;;;;4983357;28;20195;-90
2022/01/19 13:23:31;;;;;;;36.17;18.80;;;7.10;99.90;;;;;;4982987;28;20167;-90
2022/01/19 13:26:45;;;;;;;36.20;19.33;;;7.00;99.90;;;;;;4983384;28;20159;-89
2022/01/19 13:29:51;;;;;;;33.67;18.37;;;7.00;99.90;;;;;;4982091;28;20281;-90
2022/01/19 13:32:21;;;;;;;38.50;20.20;;;7.10;99.90;;;;;;4949853;29;20194;-90
2022/01/19 13:34:58;;;;;;;38.93;20.67;;;6.90;99.90;;;;;;4980593;28;20175;-94
2022/01/19 13:37:41;;;;;;;36.80;19.93;;;7.00;99.90;;;;;;4982389;28;20163;-91
2022/01/19 13:40:27;;;;;;;40.27;21.37;;;6.90;99.90;;;;;;4964926;29;20271;-95
2022/01/19 13:43:20;;;;;;;35.63;20.67;;;6.80;99.90;;;;;;4965747;29;20179;-91
2022/01/19 13:45:50;;;;;;;36.67;19.93;;;6.70;99.90;;;;;;4964528;29;20216;-92
2022/01/19 13:48:28;;;;;;;39.37;20.43;;;6.80;99.90;;;;;;4980674;28;20195;-92
2022/01/19 13:51:02;;;;;;;41.10;20.70;;;6.90;99.90;;;;;;4981409;28;20171;-93
2022/01/19 13:53:57;;;;;;;41.53;21.67;;;7.00;99.90;;;;;;4982419;28;20195;-89
2022/01/19 13:57:18;;;;;;;37.17;20.17;;;7.00;99.90;;;;;;4965805;29;20187;-92
2022/01/19 13:59:46;;;;;;;34.80;19.67;;;6.90;99.90;;;;;;4964496;28;20223;-87
2022/01/19 14:02:33;;;;;;;35.90;18.97;;;7.00;99.90;;;;;;4965238;29;20187;-90
2022/01/19 14:05:33;;;;;;;36.97;19.83;;;6.90;99.90;;;;;;4969992;28;20198;-91
2022/01/19 14:08:22;;;;;;;42.07;20.43;;;6.90;99.90;;;;;;4964426;28;20167;-93
2022/01/19 14:10:56;;;;;;;36.07;19.97;;;6.90;99.90;;;;;;4963436;28;20175;-95
2022/01/19 14:14:02;;;;;;;37.07;20.17;;;6.80;99.90;;;;;;4963634;29;20175;-95
2022/01/19 14:16:53;;;;;;;41.00;21.10;;;6.80;99.90;;;;;;4979307;29;20156;-95
2022/01/19 14:20:15;;;;;;;38.97;21.67;;;6.80;99.90;;;;;;4977592;28;20218;-90
2022/01/19 14:22:41;;;;;;;42.70;21.50;;;6.80;99.90;;;;;;4980725;28;20198;-90
2022/01/19 14:25:15;;;;;;;37.33;20.67;;;6.80;99.90;;;;;;4961290;29;20187;-96
2022/01/19 14:28:12;;;;;;;45.53;22.30;;;6.90;99.90;;;;;;4976406;29;20166;-92
2022/01/19 14:30:44;;;;;;;42.13;21.50;;;7.00;99.90;;;;;;4960929;29;20227;-93
2022/01/19 14:33:15;;;;;;;41.00;22.17;;;7.00;99.90;;;;;;4961341;29;20194;-92
2022/01/19 14:35:40;;;;;;;41.50;22.30;;;6.90;99.90;;;;;;4943736;29;20183;-95
2022/01/19 14:38:32;;;;;;;39.60;22.20;;;7.00;99.90;;;;;;4954920;29;20549;-92
2022/01/19 14:41:31;;;;;;;40.53;22.10;;;7.00;99.90;;;;;;4959379;29;20241;-92
2022/01/19 14:44:29;;;;;;;44.17;22.93;;;6.90;99.90;;;;;;4960789;29;20208;-91
2022/01/19 14:47:26;;;;;;;45.97;21.63;;;6.80;99.90;;;;;;4975158;29;20254;-91
2022/01/19 14:50:23;;;;;;;40.93;22.17;;;7.00;99.90;;;;;;4947674;29;20218;-95
2022/01/19 14:53:17;;;;;;;42.73;21.50;;;7.00;99.90;;;;;;4975941;29;20212;-95
2022/01/19 14:55:45;;;;;;;38.33;21.23;;;7.00;99.90;;;;;;4960458;29;20184;-93
2022/01/19 14:58:22;;;;;;;39.90;22.90;;;7.00;99.90;;;;;;4960201;29;20179;-91
2022/01/19 15:00:53;;;;;;;44.80;21.03;;;7.10;99.90;;;;;;4961572;29;20210;-95
2022/01/19 15:03:22;;;;;;;38.47;21.17;;;7.20;99.90;;;;;;4976361;29;20151;-91
2022/01/19 15:05:51;;;;;;;39.23;20.37;;;7.20;99.90;;;;;;4959370;29;20251;-93
2022/01/19 15:08:24;;;;;;;43.50;22.40;;;7.20;99.90;;;;;;4976155;29;20156;-90
2022/01/19 15:10:51;;;;;;;38.93;21.33;;;7.10;99.90;;;;;;4960661;29;20187;-90
2022/01/19 15:13:28;;;;;;;43.27;21.90;;;6.90;99.90;;;;;;4958138;29;20234;-90
2022/01/19 15:16:00;;;;;;;40.67;22.10;;;6.90;99.90;;;;;;4960487;29;20219;-89
2022/01/19 15:18:26;;;;;;;46.93;22.60;;;7.00;99.90;;;;;;4957239;29;20212;-89
2022/01/19 15:20:53;;;;;;;45.87;21.83;;;7.00;99.90;;;;;;4959410;29;20223;-90
2022/01/19 15:23:21;;;;;;;38.90;21.43;;;7.10;99.90;;;;;;4958972;29;20337;-90
2022/01/19 15:25:48;;;;;;;66.30;23.03;;;7.20;99.90;;;;;;4959790;29;20240;-89
2022/01/19 15:28:16;;;;;;;41.77;22.43;;;7.20;99.90;;;;;;4944291;29;20200;-90
2022/01/19 15:30:43;;;;;;;42.83;22.67;;;7.30;99.90;;;;;;4959534;29;20171;-94
2022/01/19 15:33:20;;;;;;;44.80;21.30;;;7.30;99.90;;;;;;4959848;28;20195;-93
2022/01/19 15:35:50;;;;;;;41.27;21.37;;;7.20;99.90;;;;;;4975979;29;20170;-92
2022/01/19 15:38:21;;;;;;;39.70;20.63;;;7.30;99.90;;;;;;4958629;29;20190;-91
2022/01/19 15:41:08;;;;;;;41.87;21.40;;;7.20;99.90;;;;;;4943752;29;20219;-91
2022/01/19 15:43:40;;;;;;;44.93;23.20;;;7.20;99.90;;;;;;4972353;29;20176;-96